sensor_id;sensor_type;location;lat;lon;timestamp;pressure;altitude;pressure_sealevel;temperature;humidity
65173;BME280;69059;52.218;5.172;2023-09-19T00:00:20;100227.25;;;14.31;100.00
65173;BME280;69059;52.218;5.172;2023-09-19T00:02:52;100227.25;;;14.31;100.00
65173;BME280;69059;52.218;5.172;2023-09-19T00:05:19;100219.19;;;14.26;100.00
65173;BME280;69059;52.218;5.172;2023-09-19T00:07:50;100218.91;;;14.34;100.00
65173;BME280;69059;52.218;5.172;2023-09-19T00:10:21;100214.78;;;14.02;100.00
65173;BME280;69059;52.218;5.172;2023-09-19T00:12:52;100194.09;;;14.12;100.00
65173;BME280;69059;52.218;5.172;2023-09-19T00:15:22;100193.91;;;13.88;100.00
65173;BME280;69059;52.218;5.172;2023-09-19T00:17:49;100170.09;;;14.08;100.00
65173;BME280;69059;52.218;5.172;2023-09-19T00:20:19;100167.09;;;14.05;100.00
65173;BME280;69059;52.218;5.172;2023-09-19T00:22:49;100156.47;;;14.18;100.00
65173;BME280;69059;52.218;5.172;2023-09-19T00:25:18;100160.03;;;14.23;100.00
65173;BME280;69059;52.218;5.172;2023-09-19T00:27:46;100162.28;;;14.02;100.00
65173;BME280;69059;52.218;5.172;2023-09-19T00:30:19;100156.16;;;14.08;100.00
65173;BME280;69059;52.218;5.172;2023-09-19T00:32:48;100150.81;;;13.96;100.00
65173;BME280;69059;52.218;5.172;2023-09-19T00:35:15;100137.66;;;14.03;100.00
65173;BME280;69059;52.218;5.172;2023-09-19T00:37:43;100131.72;;;13.89;100.00
65173;BME280;69059;52.218;5.172;2023-09-19T00:40:12;100099.56;;;13.93;100.00
65173;BME280;69059;52.218;5.172;2023-09-19T00:42:42;100083.97;;;13.80;100.00
65173;BME280;69059;52.218;5.172;2023-09-19T00:45:10;100053.34;;;13.74;100.00
65173;BME280;69059;52.218;5.172;2023-09-19T00:47:39;100021.75;;;13.87;100.00
65173;BME280;69059;52.218;5.172;2023-09-19T00:50:08;100008.25;;;13.84;100.00
65173;BME280;69059;52.218;5.172;2023-09-19T00:52:37;99999.28;;;13.91;100.00
65173;BME280;69059;52.218;5.172;2023-09-19T00:55:06;100005.41;;;13.85;100.00
65173;BME280;69059;52.218;5.172;2023-09-19T00:57:35;99985.97;;;13.93;100.00
65173;BME280;69059;52.218;5.172;2023-09-19T01:00:05;99999.22;;;13.80;100.00
65173;BME280;69059;52.218;5.172;2023-09-19T01:02:33;99985.16;;;13.74;100.00
65173;BME280;69059;52.218;5.172;2023-09-19T01:05:03;99982.00;;;13.84;100.00
65173;BME280;69059;52.218;5.172;2023-09-19T01:07:32;99997.75;;;13.84;100.00
65173;BME280;69059;52.218;5.172;2023-09-19T01:10:00;100019.91;;;13.88;100.00
65173;BME280;69059;52.218;5.172;2023-09-19T01:12:33;100040.25;;;13.74;100.00
65173;BME280;69059;52.218;5.172;2023-09-19T01:15:10;100039.94;;;13.82;100.00
65173;BME280;69059;52.218;5.172;2023-09-19T01:17:42;100044.97;;;13.84;100.00
65173;BME280;69059;52.218;5.172;2023-09-19T01:20:19;100063.28;;;13.90;100.00
65173;BME280;69059;52.218;5.172;2023-09-19T01:22:53;100053.78;;;13.71;100.00
65173;BME280;69059;52.218;5.172;2023-09-19T01:28:15;100102.34;;;13.80;100.00
65173;BME280;69059;52.218;5.172;2023-09-19T01:30:50;100115.91;;;13.77;100.00
65173;BME280;69059;52.218;5.172;2023-09-19T01:33:20;100118.09;;;13.80;100.00
65173;BME280;69059;52.218;5.172;2023-09-19T01:35:49;100120.72;;;13.80;100.00
65173;BME280;69059;52.218;5.172;2023-09-19T01:38:17;100134.59;;;13.81;100.00
65173;BME280;69059;52.218;5.172;2023-09-19T01:40:47;100144.31;;;13.80;100.00
65173;BME280;69059;52.218;5.172;2023-09-19T01:43:21;100154.38;;;13.83;100.00
65173;BME280;69059;52.218;5.172;2023-09-19T01:45:54;100164.13;;;13.76;100.00
65173;BME280;69059;52.218;5.172;2023-09-19T01:48:25;100174.03;;;13.74;100.00
65173;BME280;69059;52.218;5.172;2023-09-19T01:50:59;100185.38;;;13.68;100.00
65173;BME280;69059;52.218;5.172;2023-09-19T01:53:27;100179.69;;;13.71;100.00
65173;BME280;69059;52.218;5.172;2023-09-19T01:55:57;100197.34;;;13.82;100.00
65173;BME280;69059;52.218;5.172;2023-09-19T01:58:27;100214.50;;;13.60;100.00
65173;BME280;69059;52.218;5.172;2023-09-19T02:00:58;100223.28;;;13.72;100.00
65173;BME280;69059;52.218;5.172;2023-09-19T02:03:27;100221.94;;;13.63;100.00
65173;BME280;69059;52.218;5.172;2023-09-19T02:05:56;100228.47;;;13.54;100.00
65173;BME280;69059;52.218;5.172;2023-09-19T02:08:24;100225.16;;;13.65;100.00
65173;BME280;69059;52.218;5.172;2023-09-19T02:10:52;100224.09;;;13.41;100.00
65173;BME280;69059;52.218;5.172;2023-09-19T02:13:19;100267.53;;;13.62;100.00
65173;BME280;69059;52.218;5.172;2023-09-19T02:15:48;100275.91;;;13.77;100.00
65173;BME280;69059;52.218;5.172;2023-09-19T02:18:17;100294.72;;;13.74;100.00
65173;BME280;69059;52.218;5.172;2023-09-19T02:20:44;100312.13;;;13.62;100.00
65173;BME280;69059;52.218;5.172;2023-09-19T02:23:13;100321.41;;;13.58;100.00
65173;BME280;69059;52.218;5.172;2023-09-19T02:25:42;100315.00;;;13.54;100.00
65173;BME280;69059;52.218;5.172;2023-09-19T02:28:10;100322.63;;;13.62;100.00
65173;BME280;69059;52.218;5.172;2023-09-19T02:30:38;100330.50;;;13.55;100.00
65173;BME280;69059;52.218;5.172;2023-09-19T02:33:06;100328.66;;;13.62;100.00
65173;BME280;69059;52.218;5.172;2023-09-19T02:35:36;100332.84;;;13.70;100.00
65173;BME280;69059;52.218;5.172;2023-09-19T02:38:04;100338.91;;;13.71;100.00
65173;BME280;69059;52.218;5.172;2023-09-19T02:40:33;100342.00;;;13.61;100.00
65173;BME280;69059;52.218;5.172;2023-09-19T02:43:02;100347.84;;;13.63;100.00
65173;BME280;69059;52.218;5.172;2023-09-19T02:45:31;100345.63;;;13.67;100.00
65173;BME280;69059;52.218;5.172;2023-09-19T02:47:59;100345.41;;;13.61;100.00
65173;BME280;69059;52.218;5.172;2023-09-19T02:50:29;100343.56;;;13.69;100.00
65173;BME280;69059;52.218;5.172;2023-09-19T02:52:58;100344.16;;;13.71;100.00
65173;BME280;69059;52.218;5.172;2023-09-19T02:55:26;100342.59;;;13.63;100.00
65173;BME280;69059;52.218;5.172;2023-09-19T02:57:54;100345.03;;;13.58;100.00
65173;BME280;69059;52.218;5.172;2023-09-19T03:00:22;100325.69;;;13.52;100.00
65173;BME280;69059;52.218;5.172;2023-09-19T03:02:50;100325.78;;;13.71;100.00
65173;BME280;69059;52.218;5.172;2023-09-19T03:05:18;100321.00;;;13.61;100.00
65173;BME280;69059;52.218;5.172;2023-09-19T03:07:47;100327.72;;;13.50;100.00
65173;BME280;69059;52.218;5.172;2023-09-19T03:10:18;100317.84;;;13.52;100.00
65173;BME280;69059;52.218;5.172;2023-09-19T03:12:46;100326.88;;;13.56;100.00
65173;BME280;69059;52.218;5.172;2023-09-19T03:15:14;100326.06;;;13.62;100.00
65173;BME280;69059;52.218;5.172;2023-09-19T03:17:43;100337.81;;;13.53;100.00
65173;BME280;69059;52.218;5.172;2023-09-19T03:20:11;100307.88;;;13.30;100.00
65173;BME280;69059;52.218;5.172;2023-09-19T03:22:40;100336.41;;;13.51;100.00
65173;BME280;69059;52.218;5.172;2023-09-19T03:25:08;100347.31;;;13.48;100.00
65173;BME280;69059;52.218;5.172;2023-09-19T03:27:39;100335.19;;;13.53;100.00
65173;BME280;69059;52.218;5.172;2023-09-19T03:30:07;100336.81;;;13.48;100.00
65173;BME280;69059;52.218;5.172;2023-09-19T03:32:35;100328.75;;;13.49;100.00
65173;BME280;69059;52.218;5.172;2023-09-19T03:35:03;100294.03;;;13.47;100.00
65173;BME280;69059;52.218;5.172;2023-09-19T03:37:32;100322.22;;;13.65;100.00
65173;BME280;69059;52.218;5.172;2023-09-19T03:40:00;100321.41;;;13.65;100.00
65173;BME280;69059;52.218;5.172;2023-09-19T03:42:31;100319.59;;;13.65;100.00
65173;BME280;69059;52.218;5.172;2023-09-19T03:45:00;100314.97;;;13.60;100.00
65173;BME280;69059;52.218;5.172;2023-09-19T03:47:30;100321.63;;;13.56;100.00
65173;BME280;69059;52.218;5.172;2023-09-19T03:49:58;100323.16;;;13.71;100.00
65173;BME280;69059;52.218;5.172;2023-09-19T03:52:26;100328.84;;;13.68;100.00
65173;BME280;69059;52.218;5.172;2023-09-19T03:54:53;100332.16;;;13.50;100.00
65173;BME280;69059;52.218;5.172;2023-09-19T03:57:21;100337.41;;;13.50;100.00
65173;BME280;69059;52.218;5.172;2023-09-19T03:59:48;100346.53;;;13.41;100.00
65173;BME280;69059;52.218;5.172;2023-09-19T04:02:20;100333.44;;;13.34;100.00
65173;BME280;69059;52.218;5.172;2023-09-19T04:04:50;100342.72;;;13.37;100.00
65173;BME280;69059;52.218;5.172;2023-09-19T04:07:18;100344.88;;;13.46;100.00
65173;BME280;69059;52.218;5.172;2023-09-19T04:09:49;100343.06;;;13.53;100.00
65173;BME280;69059;52.218;5.172;2023-09-19T04:12:16;100358.38;;;13.50;100.00
65173;BME280;69059;52.218;5.172;2023-09-19T04:14:44;100369.09;;;13.48;100.00
65173;BME280;69059;52.218;5.172;2023-09-19T04:17:12;100372.06;;;13.58;100.00
65173;BME280;69059;52.218;5.172;2023-09-19T04:19:41;100385.97;;;13.66;100.00
65173;BME280;69059;52.218;5.172;2023-09-19T04:22:09;100384.56;;;13.56;100.00
65173;BME280;69059;52.218;5.172;2023-09-19T04:24:37;100386.84;;;13.53;100.00
65173;BME280;69059;52.218;5.172;2023-09-19T04:27:05;100398.28;;;13.58;100.00
65173;BME280;69059;52.218;5.172;2023-09-19T04:29:33;100382.19;;;13.55;100.00
65173;BME280;69059;52.218;5.172;2023-09-19T04:32:01;100380.56;;;13.54;100.00
65173;BME280;69059;52.218;5.172;2023-09-19T04:34:30;100377.34;;;13.52;100.00
65173;BME280;69059;52.218;5.172;2023-09-19T04:37:00;100383.41;;;13.46;100.00
65173;BME280;69059;52.218;5.172;2023-09-19T04:39:28;100379.16;;;13.51;100.00
65173;BME280;69059;52.218;5.172;2023-09-19T04:41:56;100385.81;;;13.47;100.00
65173;BME280;69059;52.218;5.172;2023-09-19T04:44:25;100379.63;;;13.35;100.00
65173;BME280;69059;52.218;5.172;2023-09-19T04:46:52;100378.19;;;13.39;100.00
65173;BME280;69059;52.218;5.172;2023-09-19T04:49:20;100386.06;;;13.33;100.00
65173;BME280;69059;52.218;5.172;2023-09-19T04:51:48;100368.72;;;13.38;100.00
65173;BME280;69059;52.218;5.172;2023-09-19T04:54:17;100373.94;;;13.45;100.00
65173;BME280;69059;52.218;5.172;2023-09-19T04:56:44;100382.44;;;13.34;100.00
65173;BME280;69059;52.218;5.172;2023-09-19T04:59:12;100391.16;;;13.21;100.00
65173;BME280;69059;52.218;5.172;2023-09-19T05:01:41;100393.16;;;13.19;100.00
65173;BME280;69059;52.218;5.172;2023-09-19T05:04:09;100382.88;;;13.17;100.00
65173;BME280;69059;52.218;5.172;2023-09-19T05:06:37;100383.50;;;13.13;100.00
65173;BME280;69059;52.218;5.172;2023-09-19T05:09:05;100378.44;;;13.24;100.00
65173;BME280;69059;52.218;5.172;2023-09-19T05:11:34;100373.66;;;13.15;100.00
65173;BME280;69059;52.218;5.172;2023-09-19T05:14:03;100366.56;;;13.22;100.00
65173;BME280;69059;52.218;5.172;2023-09-19T05:16:30;100375.25;;;13.16;100.00
65173;BME280;69059;52.218;5.172;2023-09-19T05:18:59;100372.41;;;13.17;100.00
65173;BME280;69059;52.218;5.172;2023-09-19T05:21:28;100374.44;;;13.15;100.00
65173;BME280;69059;52.218;5.172;2023-09-19T05:23:57;100375.03;;;13.17;100.00
65173;BME280;69059;52.218;5.172;2023-09-19T05:26:25;100372.97;;;13.33;100.00
65173;BME280;69059;52.218;5.172;2023-09-19T05:28:54;100360.09;;;13.18;100.00
65173;BME280;69059;52.218;5.172;2023-09-19T05:31:21;100368.38;;;13.21;100.00
65173;BME280;69059;52.218;5.172;2023-09-19T05:33:50;100361.91;;;13.17;100.00
65173;BME280;69059;52.218;5.172;2023-09-19T05:36:21;100367.34;;;13.29;100.00
65173;BME280;69059;52.218;5.172;2023-09-19T05:38:48;100362.91;;;13.23;100.00
65173;BME280;69059;52.218;5.172;2023-09-19T05:41:19;100370.78;;;13.30;100.00
65173;BME280;69059;52.218;5.172;2023-09-19T05:43:48;100365.75;;;13.28;100.00
65173;BME280;69059;52.218;5.172;2023-09-19T05:46:17;100365.34;;;13.24;100.00
65173;BME280;69059;52.218;5.172;2023-09-19T05:48:45;100361.31;;;13.22;100.00
65173;BME280;69059;52.218;5.172;2023-09-19T05:51:16;100365.34;;;13.18;100.00
65173;BME280;69059;52.218;5.172;2023-09-19T05:53:46;100365.53;;;13.30;100.00
65173;BME280;69059;52.218;5.172;2023-09-19T05:56:14;100371.78;;;13.29;100.00
65173;BME280;69059;52.218;5.172;2023-09-19T05:58:45;100373.78;;;13.33;100.00
65173;BME280;69059;52.218;5.172;2023-09-19T06:01:13;100376.56;;;13.45;100.00
65173;BME280;69059;52.218;5.172;2023-09-19T06:03:43;100375.75;;;13.44;100.00
65173;BME280;69059;52.218;5.172;2023-09-19T06:06:10;100381.84;;;13.32;100.00
65173;BME280;69059;52.218;5.172;2023-09-19T06:08:38;100373.78;;;13.40;100.00
65173;BME280;69059;52.218;5.172;2023-09-19T06:11:06;100381.03;;;13.38;100.00
65173;BME280;69059;52.218;5.172;2023-09-19T06:13:37;100366.50;;;13.42;100.00
65173;BME280;69059;52.218;5.172;2023-09-19T06:16:07;100369.28;;;13.47;100.00
65173;BME280;69059;52.218;5.172;2023-09-19T06:18:36;100375.09;;;13.55;100.00
65173;BME280;69059;52.218;5.172;2023-09-19T06:21:05;100369.28;;;13.47;100.00
65173;BME280;69059;52.218;5.172;2023-09-19T06:23:34;100369.84;;;13.62;100.00
65173;BME280;69059;52.218;5.172;2023-09-19T06:26:02;100367.81;;;13.64;100.00
65173;BME280;69059;52.218;5.172;2023-09-19T06:28:33;100354.84;;;13.69;100.00
65173;BME280;69059;52.218;5.172;2023-09-19T06:31:01;100369.97;;;13.74;100.00
65173;BME280;69059;52.218;5.172;2023-09-19T06:33:29;100364.72;;;13.74;100.00
65173;BME280;69059;52.218;5.172;2023-09-19T06:35:58;100366.75;;;13.72;100.00
65173;BME280;69059;52.218;5.172;2023-09-19T06:38:28;100367.69;;;13.84;100.00
65173;BME280;69059;52.218;5.172;2023-09-19T06:40:55;100375.34;;;13.85;100.00
65173;BME280;69059;52.218;5.172;2023-09-19T06:43:24;100378.38;;;13.89;100.00
65173;BME280;69059;52.218;5.172;2023-09-19T06:45:51;100380.19;;;13.88;100.00
65173;BME280;69059;52.218;5.172;2023-09-19T06:48:21;100377.38;;;13.83;100.00
65173;BME280;69059;52.218;5.172;2023-09-19T06:50:52;100372.88;;;13.97;100.00
65173;BME280;69059;52.218;5.172;2023-09-19T06:53:20;100379.78;;;13.91;100.00
65173;BME280;69059;52.218;5.172;2023-09-19T06:55:51;100367.38;;;14.05;100.00
65173;BME280;69059;52.218;5.172;2023-09-19T06:58:19;100359.88;;;14.09;100.00
65173;BME280;69059;52.218;5.172;2023-09-19T07:00:47;100359.72;;;14.04;100.00
65173;BME280;69059;52.218;5.172;2023-09-19T07:03:16;100358.25;;;14.08;100.00
65173;BME280;69059;52.218;5.172;2023-09-19T07:05:47;100363.59;;;14.26;100.00
65173;BME280;69059;52.218;5.172;2023-09-19T07:08:15;100350.56;;;14.13;100.00
65173;BME280;69059;52.218;5.172;2023-09-19T07:10:42;100357.97;;;14.22;100.00
65173;BME280;69059;52.218;5.172;2023-09-19T07:13:17;100360.97;;;14.26;100.00
65173;BME280;69059;52.218;5.172;2023-09-19T07:15:45;100357.16;;;14.22;100.00
65173;BME280;69059;52.218;5.172;2023-09-19T07:18:14;100360.97;;;14.26;100.00
65173;BME280;69059;52.218;5.172;2023-09-19T07:20:43;100365.28;;;14.45;100.00
65173;BME280;69059;52.218;5.172;2023-09-19T07:23:15;100383.09;;;14.37;100.00
65173;BME280;69059;52.218;5.172;2023-09-19T07:25:44;100396.81;;;14.45;100.00
65173;BME280;69059;52.218;5.172;2023-09-19T07:28:12;100415.16;;;14.52;100.00
65173;BME280;69059;52.218;5.172;2023-09-19T07:30:41;100423.19;;;14.57;100.00
65173;BME280;69059;52.218;5.172;2023-09-19T07:33:09;100423.78;;;14.59;100.00
65173;BME280;69059;52.218;5.172;2023-09-19T07:35:38;100444.16;;;14.63;100.00
65173;BME280;69059;52.218;5.172;2023-09-19T07:38:07;100451.63;;;14.66;100.00
65173;BME280;69059;52.218;5.172;2023-09-19T07:40:35;100453.34;;;14.79;100.00
65173;BME280;69059;52.218;5.172;2023-09-19T07:43:03;100469.84;;;14.86;100.00
65173;BME280;69059;52.218;5.172;2023-09-19T07:45:31;100476.09;;;14.92;100.00
65173;BME280;69059;52.218;5.172;2023-09-19T07:48:00;100480.56;;;14.85;100.00
65173;BME280;69059;52.218;5.172;2023-09-19T07:50:30;100499.94;;;14.90;100.00
65173;BME280;69059;52.218;5.172;2023-09-19T07:52:58;100498.38;;;14.83;100.00
65173;BME280;69059;52.218;5.172;2023-09-19T07:55:26;100496.25;;;14.98;100.00
65173;BME280;69059;52.218;5.172;2023-09-19T07:57:54;100506.50;;;15.06;100.00
65173;BME280;69059;52.218;5.172;2023-09-19T08:00:21;100504.00;;;15.11;100.00
65173;BME280;69059;52.218;5.172;2023-09-19T08:02:49;100505.13;;;15.22;100.00
65173;BME280;69059;52.218;5.172;2023-09-19T08:05:28;100516.25;;;15.24;100.00
65173;BME280;69059;52.218;5.172;2023-09-19T08:07:55;100527.34;;;15.26;100.00
65173;BME280;69059;52.218;5.172;2023-09-19T08:10:25;100532.19;;;15.29;100.00
65173;BME280;69059;52.218;5.172;2023-09-19T08:12:54;100533.59;;;15.31;100.00
65173;BME280;69059;52.218;5.172;2023-09-19T08:15:24;100526.44;;;15.38;100.00
65173;BME280;69059;52.218;5.172;2023-09-19T08:17:52;100540.97;;;15.41;100.00
65173;BME280;69059;52.218;5.172;2023-09-19T08:20:20;100535.44;;;15.49;100.00
65173;BME280;69059;52.218;5.172;2023-09-19T08:22:49;100544.50;;;15.53;100.00
65173;BME280;69059;52.218;5.172;2023-09-19T08:25:19;100555.44;;;15.57;100.00
65173;BME280;69059;52.218;5.172;2023-09-19T08:27:48;100547.09;;;15.60;100.00
65173;BME280;69059;52.218;5.172;2023-09-19T08:30:16;100552.44;;;15.71;100.00
65173;BME280;69059;52.218;5.172;2023-09-19T08:32:46;100546.44;;;15.64;100.00
65173;BME280;69059;52.218;5.172;2023-09-19T08:35:14;100543.91;;;15.76;100.00
65173;BME280;69059;52.218;5.172;2023-09-19T08:37:42;100545.88;;;15.81;100.00
65173;BME280;69059;52.218;5.172;2023-09-19T08:40:13;100552.09;;;16.04;100.00
65173;BME280;69059;52.218;5.172;2023-09-19T08:42:47;100566.28;;;16.03;100.00
65173;BME280;69059;52.218;5.172;2023-09-19T08:45:15;100565.84;;;16.06;100.00
65173;BME280;69059;52.218;5.172;2023-09-19T08:47:45;100565.97;;;16.30;100.00
65173;BME280;69059;52.218;5.172;2023-09-19T08:50:15;100589.03;;;16.16;100.00
65173;BME280;69059;52.218;5.172;2023-09-19T08:52:46;100594.94;;;16.11;100.00
65173;BME280;69059;52.218;5.172;2023-09-19T08:55:19;100609.44;;;16.21;100.00
65173;BME280;69059;52.218;5.172;2023-09-19T08:57:49;100610.88;;;16.35;100.00
65173;BME280;69059;52.218;5.172;2023-09-19T09:00:17;100620.38;;;16.54;100.00
65173;BME280;69059;52.218;5.172;2023-09-19T09:02:47;100628.59;;;16.46;100.00
65173;BME280;69059;52.218;5.172;2023-09-19T09:05:16;100625.59;;;16.42;100.00
65173;BME280;69059;52.218;5.172;2023-09-19T09:07:49;100641.19;;;16.44;100.00
65173;BME280;69059;52.218;5.172;2023-09-19T09:10:19;100638.81;;;16.54;100.00
65173;BME280;69059;52.218;5.172;2023-09-19T09:12:49;100631.38;;;16.33;100.00
65173;BME280;69059;52.218;5.172;2023-09-19T09:15:18;100634.16;;;16.38;100.00
65173;BME280;69059;52.218;5.172;2023-09-19T09:17:50;100635.91;;;16.44;100.00
65173;BME280;69059;52.218;5.172;2023-09-19T09:20:20;100634.47;;;16.60;100.00
65173;BME280;69059;52.218;5.172;2023-09-19T09:22:51;100626.69;;;16.71;100.00
65173;BME280;69059;52.218;5.172;2023-09-19T09:25:22;100637.50;;;16.63;100.00
65173;BME280;69059;52.218;5.172;2023-09-19T09:28:00;100648.41;;;16.48;100.00
65173;BME280;69059;52.218;5.172;2023-09-19T09:30:35;100647.59;;;16.48;100.00
65173;BME280;69059;52.218;5.172;2023-09-19T09:33:09;100638.81;;;16.36;100.00
65173;BME280;69059;52.218;5.172;2023-09-19T09:35:46;100627.09;;;16.50;100.00
65173;BME280;69059;52.218;5.172;2023-09-19T09:38:14;100631.50;;;16.56;100.00
65173;BME280;69059;52.218;5.172;2023-09-19T09:40:50;100641.03;;;16.39;100.00
65173;BME280;69059;52.218;5.172;2023-09-19T09:43:27;100644.31;;;16.53;100.00
65173;BME280;69059;52.218;5.172;2023-09-19T09:46:09;100640.75;;;16.65;100.00
65173;BME280;69059;52.218;5.172;2023-09-19T09:48:59;100649.50;;;16.77;100.00
65173;BME280;69059;52.218;5.172;2023-09-19T09:52:00;100640.25;;;16.87;100.00
65173;BME280;69059;52.218;5.172;2023-09-19T09:54:35;100628.22;;;16.91;100.00
65173;BME280;69059;52.218;5.172;2023-09-19T09:57:05;100633.31;;;17.04;100.00
65173;BME280;69059;52.218;5.172;2023-09-19T09:59:44;100646.66;;;17.09;100.00
65173;BME280;69059;52.218;5.172;2023-09-19T10:02:13;100653.03;;;17.01;100.00
65173;BME280;69059;52.218;5.172;2023-09-19T10:04:42;100649.59;;;17.01;100.00
65173;BME280;69059;52.218;5.172;2023-09-19T10:07:25;100656.63;;;17.07;100.00
65173;BME280;69059;52.218;5.172;2023-09-19T10:09:58;100643.91;;;17.15;100.00
65173;BME280;69059;52.218;5.172;2023-09-19T10:12:32;100648.22;;;17.10;100.00
65173;BME280;69059;52.218;5.172;2023-09-19T10:15:01;100645.94;;;17.13;100.00
65173;BME280;69059;52.218;5.172;2023-09-19T10:17:30;100653.06;;;17.13;100.00
65173;BME280;69059;52.218;5.172;2023-09-19T10:20:01;100643.00;;;17.22;100.00
65173;BME280;69059;52.218;5.172;2023-09-19T10:22:36;100657.25;;;17.32;100.00
65173;BME280;69059;52.218;5.172;2023-09-19T10:25:05;100651.06;;;17.50;100.00
65173;BME280;69059;52.218;5.172;2023-09-19T10:27:36;100623.06;;;17.61;100.00
65173;BME280;69059;52.218;5.172;2023-09-19T10:30:05;100635.63;;;17.88;100.00
65173;BME280;69059;52.218;5.172;2023-09-19T10:32:34;100643.31;;;18.02;100.00
65173;BME280;69059;52.218;5.172;2023-09-19T10:35:03;100640.44;;;18.03;100.00
65173;BME280;69059;52.218;5.172;2023-09-19T10:37:33;100630.09;;;17.90;100.00
65173;BME280;69059;52.218;5.172;2023-09-19T10:40:01;100625.56;;;18.25;100.00
65173;BME280;69059;52.218;5.172;2023-09-19T10:42:32;100634.81;;;18.51;100.00
65173;BME280;69059;52.218;5.172;2023-09-19T10:45:02;100635.31;;;18.37;100.00
65173;BME280;69059;52.218;5.172;2023-09-19T10:47:34;100629.50;;;18.23;100.00
65173;BME280;69059;52.218;5.172;2023-09-19T10:50:05;100625.06;;;18.40;100.00
65173;BME280;69059;52.218;5.172;2023-09-19T10:52:40;100618.47;;;18.54;100.00
65173;BME280;69059;52.218;5.172;2023-09-19T10:55:08;100626.66;;;18.53;100.00
65173;BME280;69059;52.218;5.172;2023-09-19T10:57:37;100639.06;;;18.52;100.00
65173;BME280;69059;52.218;5.172;2023-09-19T11:00:07;100635.75;;;18.45;100.00
65173;BME280;69059;52.218;5.172;2023-09-19T11:06:02;100635.25;;;18.20;100.00
65173;BME280;69059;52.218;5.172;2023-09-19T11:08:46;100627.09;;;18.21;100.00
65173;BME280;69059;52.218;5.172;2023-09-19T11:14:28;100629.59;;;18.28;100.00
65173;BME280;69059;52.218;5.172;2023-09-19T11:25:45;100612.44;;;18.42;100.00
65173;BME280;69059;52.218;5.172;2023-09-19T11:28:32;100613.34;;;18.48;100.00
65173;BME280;69059;52.218;5.172;2023-09-19T11:31:40;100620.88;;;18.68;100.00
65173;BME280;69059;52.218;5.172;2023-09-19T11:34:00;100618.47;;;18.66;100.00
65173;BME280;69059;52.218;5.172;2023-09-19T11:36:48;100620.53;;;18.64;100.00
65173;BME280;69059;52.218;5.172;2023-09-19T11:39:24;100606.31;;;18.53;100.00
65173;BME280;69059;52.218;5.172;2023-09-19T11:41:53;100606.44;;;18.58;100.00
65173;BME280;69059;52.218;5.172;2023-09-19T11:44:33;100595.09;;;18.75;100.00
65173;BME280;69059;52.218;5.172;2023-09-19T11:47:02;100604.22;;;18.67;100.00
65173;BME280;69059;52.218;5.172;2023-09-19T11:49:33;100603.75;;;18.70;100.00
65173;BME280;69059;52.218;5.172;2023-09-19T11:52:04;100608.84;;;18.60;100.00
65173;BME280;69059;52.218;5.172;2023-09-19T11:54:35;100612.00;;;18.74;100.00
65173;BME280;69059;52.218;5.172;2023-09-19T11:57:06;100612.09;;;18.79;100.00
65173;BME280;69059;52.218;5.172;2023-09-19T11:59:38;100631.03;;;18.59;100.00
65173;BME280;69059;52.218;5.172;2023-09-19T12:02:06;100613.44;;;18.53;100.00
65173;BME280;69059;52.218;5.172;2023-09-19T12:04:37;100617.09;;;18.52;100.00
65173;BME280;69059;52.218;5.172;2023-09-19T12:07:06;100610.59;;;18.43;100.00
65173;BME280;69059;52.218;5.172;2023-09-19T12:09:40;100617.75;;;18.31;100.00
65173;BME280;69059;52.218;5.172;2023-09-19T12:12:10;100622.13;;;18.25;100.00
65173;BME280;69059;52.218;5.172;2023-09-19T12:14:41;100610.22;;;18.11;100.00
65173;BME280;69059;52.218;5.172;2023-09-19T12:17:14;100615.41;;;18.06;100.00
65173;BME280;69059;52.218;5.172;2023-09-19T12:19:50;100615.03;;;18.14;100.00
65173;BME280;69059;52.218;5.172;2023-09-19T12:22:19;100619.63;;;18.18;100.00
65173;BME280;69059;52.218;5.172;2023-09-19T12:24:47;100611.94;;;18.05;100.00
65173;BME280;69059;52.218;5.172;2023-09-19T12:27:15;100612.63;;;18.01;100.00
65173;BME280;69059;52.218;5.172;2023-09-19T12:29:43;100622.53;;;18.05;100.00
65173;BME280;69059;52.218;5.172;2023-09-19T12:32:11;100605.06;;;18.04;100.00
65173;BME280;69059;52.218;5.172;2023-09-19T12:34:39;100616.06;;;18.13;100.00
65173;BME280;69059;52.218;5.172;2023-09-19T12:37:11;100619.75;;;18.12;100.00
65173;BME280;69059;52.218;5.172;2023-09-19T12:39:42;100610.66;;;18.19;100.00
65173;BME280;69059;52.218;5.172;2023-09-19T12:42:10;100600.97;;;18.25;100.00
65173;BME280;69059;52.218;5.172;2023-09-19T12:44:40;100605.31;;;18.43;100.00
65173;BME280;69059;52.218;5.172;2023-09-19T12:47:10;100612.63;;;18.52;100.00
65173;BME280;69059;52.218;5.172;2023-09-19T12:52:23;100608.34;;;18.63;100.00
65173;BME280;69059;52.218;5.172;2023-09-19T12:54:52;100604.09;;;18.62;100.00
65173;BME280;69059;52.218;5.172;2023-09-19T12:57:23;100611.16;;;18.45;100.00
65173;BME280;69059;52.218;5.172;2023-09-19T12:59:52;100620.25;;;18.37;100.00
65173;BME280;69059;52.218;5.172;2023-09-19T13:02:20;100603.25;;;18.45;100.00
65173;BME280;69059;52.218;5.172;2023-09-19T13:04:53;100616.13;;;18.41;100.00
65173;BME280;69059;52.218;5.172;2023-09-19T13:10:09;100609.22;;;18.40;100.00
65173;BME280;69059;52.218;5.172;2023-09-19T13:12:37;100603.06;;;18.35;100.00
65173;BME280;69059;52.218;5.172;2023-09-19T13:15:07;100609.50;;;18.55;100.00
65173;BME280;69059;52.218;5.172;2023-09-19T13:17:44;100610.25;;;18.79;100.00